AirNav   Everest Fuels
 
 1041 users online  

IS19 Carlson Airport
Pecatonica, Illinois, USA

GOING TO PECATONICA?


FAA INFORMATION EFFECTIVE 01 DECEMBER 2022

Location

FAA Identifier: IS19
Lat/Long: 42-20-07.0000N 089-19-25.0000W
42-20.116667N 089-19.416667W
42.3352778,-89.3236111
(estimated)
Elevation: 740 ft. / 226 m (estimated)
Variation: 01W (1995)
From city: 2 miles NE of PECATONICA, IL
Time zone: UTC -6 (UTC -5 during Daylight Saving Time)
Zip code: 61063

Airport Operations

Airport use: Private use. Permission required prior to landing
Activation date: 02/1999
Control tower: no
ARTCC: CHICAGO CENTER
FSS: KANKAKEE FLIGHT SERVICE STATION
Attendance: UNATNDD
Wind indicator: yes
Segmented circle: no

Airport Communications

WX AWOS-3 at FEP (13 nm SW): 120.525 (815-233-4472)
WX ASOS at RFD (13 nm SE): PHONE 815-484-6229

Nearby radio navigation aids

VOR radial/distance  VOR name  Freq  Var
JVLr213/16.5JANESVILLE VOR/DME114.3003E
PLLr019/23.9POLO VOR/DME111.2003E

Airport Services

Runway Information

Runway 9/27

Dimensions: 2000 x 100 ft. / 610 x 30 m
Surface: turf
RUNWAY 9  RUNWAY 27
Traffic pattern: leftleft

Airport Ownership and Management from official FAA records

Ownership: Privately-owned
Owner: JOHN W CARLSON
12755 LAKE POINTE
WINNEBAGO, IL 61088-8005
Phone 81`5-239-9051
Manager: JOHN W CARLSON
12755 LAKE POINTE
WINNEBAGO, IL 61088-8005
Phone 815-332-4600

Airport Operational Statistics

Aircraft based on the field: 1
Single engine airplanes: 1
    

Additional Remarks

FOR CD CTC CHICAGO ARTCC AT 630-906-8921.

Instrument Procedures

There are no published instrument procedures at IS19.

Some nearby airports with instrument procedures:

KFEP - Albertus Airport (13 nm SW)
KRFD - Chicago/Rockford International Airport (13 nm SE)
44C - Beloit Airport (19 nm NE)
KEFT - Monroe Municipal Airport (21 nm NW)
KJVL - Southern Wisconsin Regional Airport (21 nm NE)
 
Loc | Ops | Rwys | IFR | FBO | Links
Com | Nav | Svcs | Stats | Notes
Area around IS19 (Carlson Airport)
 
Road maps at: MapQuest Bing Google
 
Aerial photo
No photo
 
Sectional chart

 
Airport distance calculator
Flying to Carlson Airport? Find the distance to fly.

From to IS19

Sunrise and sunset
Times for 04-Dec-2022
 Local
(UTC-6)
 Zulu
(UTC)
Morning civil twilight06:3912:39
Sunrise07:1113:11
Sunset16:2422:24
Evening civil twilight16:5622:56

Current date and time
Zulu (UTC)  05-Dec-2022 00:21:59
Local (UTC-6)  04-Dec-2022 18:21:59
 
METAR
KFEP 
13nm SW 
042355Z AUTO 22010KT 10SM CLR 00/M06 A3002 RMK AO2 T00001060 10031 21025
KRFD 
13nm SE 
042354Z 17005KT 10SM FEW250 M01/M09 A3003 RMK AO2 SLP179 T10061094 10039 21033 56015 $
KEFT 
20nm NW 
042355Z AUTO 24007KT 10SM CLR M01/M08 A2998 RMK AO2 T10101081 10022 21013
KJVL 
22nm NE 
042345Z 22005KT 10SM CLR M01/M09 A3000
TAF
KRFD 
13nm SE 
042055Z 0421/0518 22009KT P6SM FEW250 FM050200 21008KT P6SM SCT250 WS010/24035KT FM051200 20011G17KT P6SM BKN100
NOTAMs
Click for the latest NOTAMs
NOTAMs are issued by the DoD/FAA and will open in a separate window not controlled by AirNav.

 

 
 

Would you like to see your business listed on this page?

 If your business provides an interesting product or service to pilots, flight crews, aircraft, or users of the Carlson Airport, you should consider listing it here.  To start the listing process, click on the button below
 
Add a business
 

Other Pages about Carlson Airport

Update a link
 
Copyright © AirNav, LLC. All rights reserved. Privacy Policy  Contact